sensor_id;sensor_type;location;lat;lon;timestamp;pressure;altitude;pressure_sealevel;temperature
24586;BMP280;12743;52.262;6.172;2022-09-20T00:00:25;101742.81;;;9.67
24586;BMP280;12743;52.262;6.172;2022-09-20T00:02:51;101782.28;;;9.89
24586;BMP280;12743;52.262;6.172;2022-09-20T00:05:17;101686.44;;;9.24
24586;BMP280;12743;52.262;6.172;2022-09-20T00:07:44;101707.97;;;9.21
24586;BMP280;12743;52.262;6.172;2022-09-20T00:10:09;101673.16;;;9.02
24586;BMP280;12743;52.262;6.172;2022-09-20T00:12:34;101737.44;;;9.45
24586;BMP280;12743;52.262;6.172;2022-09-20T00:15:00;101599.50;;;8.57
24586;BMP280;12743;52.262;6.172;2022-09-20T00:17:25;101776.03;;;9.72
24586;BMP280;12743;52.262;6.172;2022-09-20T00:19:50;101783.28;;;9.61
24586;BMP280;12743;52.262;6.172;2022-09-20T00:22:16;101768.16;;;9.58
24586;BMP280;12743;52.262;6.172;2022-09-20T00:24:41;101744.13;;;9.37
24586;BMP280;12743;52.262;6.172;2022-09-20T00:27:06;101752.91;;;9.47
24586;BMP280;12743;52.262;6.172;2022-09-20T00:29:32;101762.69;;;9.41
24586;BMP280;12743;52.262;6.172;2022-09-20T00:31:57;101743.06;;;9.38
24586;BMP280;12743;52.262;6.172;2022-09-20T00:34:23;101739.16;;;9.36
24586;BMP280;12743;52.262;6.172;2022-09-20T00:37:07;101788.16;;;9.54
24586;BMP280;12743;52.262;6.172;2022-09-20T00:39:32;101755.97;;;9.35
24586;BMP280;12743;52.262;6.172;2022-09-20T00:41:57;101759.19;;;9.32
24586;BMP280;12743;52.262;6.172;2022-09-20T00:47:32;101793.22;;;9.51
24586;BMP280;12743;52.262;6.172;2022-09-20T00:52:47;101759.38;;;9.35
24586;BMP280;12743;52.262;6.172;2022-09-20T00:55:15;101750.88;;;9.25
24586;BMP280;12743;52.262;6.172;2022-09-20T00:57:41;101790.09;;;9.49
24586;BMP280;12743;52.262;6.172;2022-09-20T01:00:09;101771.59;;;9.26
24586;BMP280;12743;52.262;6.172;2022-09-20T01:02:40;101710.81;;;8.92
24586;BMP280;12743;52.262;6.172;2022-09-20T01:05:07;101753.97;;;9.27
24586;BMP280;12743;52.262;6.172;2022-09-20T01:07:33;101744.25;;;9.14
24586;BMP280;12743;52.262;6.172;2022-09-20T01:09:59;101755.44;;;9.19
24586;BMP280;12743;52.262;6.172;2022-09-20T01:12:31;101734.78;;;8.99
24586;BMP280;12743;52.262;6.172;2022-09-20T01:14:59;101712.63;;;8.92
24586;BMP280;12743;52.262;6.172;2022-09-20T01:17:26;101772.84;;;9.29
24586;BMP280;12743;52.262;6.172;2022-09-20T01:23:07;101693.13;;;8.65
24586;BMP280;12743;52.262;6.172;2022-09-20T01:26:11;101788.66;;;9.24
24586;BMP280;12743;52.262;6.172;2022-09-20T01:28:43;101740.81;;;9.00
24586;BMP280;12743;52.262;6.172;2022-09-20T01:33:49;101790.53;;;9.23
24586;BMP280;12743;52.262;6.172;2022-09-20T01:36:25;101747.97;;;8.94
24586;BMP280;12743;52.262;6.172;2022-09-20T01:41:41;101772.75;;;9.02
24586;BMP280;12743;52.262;6.172;2022-09-20T01:47:28;101761.06;;;8.94
24586;BMP280;12743;52.262;6.172;2022-09-20T01:50:02;101762.50;;;8.87
24586;BMP280;12743;52.262;6.172;2022-09-20T01:53:10;101786.00;;;9.10
24586;BMP280;12743;52.262;6.172;2022-09-20T01:56:07;101752.50;;;8.89
24586;BMP280;12743;52.262;6.172;2022-09-20T02:01:53;101779.56;;;9.03
24586;BMP280;12743;52.262;6.172;2022-09-20T02:15:34;101757.75;;;8.89
24586;BMP280;12743;52.262;6.172;2022-09-20T02:23:39;101775.88;;;9.04
24586;BMP280;12743;52.262;6.172;2022-09-20T02:26:31;101779.56;;;9.03
24586;BMP280;12743;52.262;6.172;2022-09-20T02:29:32;101772.34;;;8.95
24586;BMP280;12743;52.262;6.172;2022-09-20T02:32:40;101778.78;;;9.02
24586;BMP280;12743;52.262;6.172;2022-09-20T02:35:40;101676.84;;;8.31
24586;BMP280;12743;52.262;6.172;2022-09-20T02:43:45;101767.94;;;8.90
24586;BMP280;12743;52.262;6.172;2022-09-20T02:46:23;101696.22;;;8.49
24586;BMP280;12743;52.262;6.172;2022-09-20T02:48:53;101765.03;;;8.92
24586;BMP280;12743;52.262;6.172;2022-09-20T02:51:38;101683.94;;;8.31
24586;BMP280;12743;52.262;6.172;2022-09-20T02:54:36;101751.97;;;8.73
24586;BMP280;12743;52.262;6.172;2022-09-20T02:59:34;101778.69;;;8.89
24586;BMP280;12743;52.262;6.172;2022-09-20T03:02:25;101785.22;;;8.91
24586;BMP280;12743;52.262;6.172;2022-09-20T03:15:56;101735.66;;;8.57
24586;BMP280;12743;52.262;6.172;2022-09-20T03:24:32;101773.75;;;8.87
24586;BMP280;12743;52.262;6.172;2022-09-20T03:33:17;101772.56;;;8.80
24586;BMP280;12743;52.262;6.172;2022-09-20T03:47:09;101791.00;;;8.69
24586;BMP280;12743;52.262;6.172;2022-09-20T03:49:56;101744.72;;;8.46
24586;BMP280;12743;52.262;6.172;2022-09-20T03:55:45;101781.69;;;8.63
24586;BMP280;12743;52.262;6.172;2022-09-20T04:04:05;101780.34;;;8.66
24586;BMP280;12743;52.262;6.172;2022-09-20T04:09:28;101782.88;;;8.71
24586;BMP280;12743;52.262;6.172;2022-09-20T04:14:52;101747.00;;;8.53
24586;BMP280;12743;52.262;6.172;2022-09-20T04:20:16;101788.75;;;8.82
24586;BMP280;12743;52.262;6.172;2022-09-20T04:22:48;101778.06;;;8.78
24586;BMP280;12743;52.262;6.172;2022-09-20T04:25:26;101719.59;;;8.45
24586;BMP280;12743;52.262;6.172;2022-09-20T04:28:03;101761.22;;;8.65
24586;BMP280;12743;52.262;6.172;2022-09-20T04:30:32;101794.91;;;8.91
24586;BMP280;12743;52.262;6.172;2022-09-20T04:33:13;101792.03;;;8.92
24586;BMP280;12743;52.262;6.172;2022-09-20T04:38:42;101771.06;;;8.73
24586;BMP280;12743;52.262;6.172;2022-09-20T04:41:16;101797.34;;;8.87
24586;BMP280;12743;52.262;6.172;2022-09-20T04:43:55;101793.16;;;8.86
24586;BMP280;12743;52.262;6.172;2022-09-20T04:46:59;101799.94;;;8.87
24586;BMP280;12743;52.262;6.172;2022-09-20T05:21:14;101814.47;;;8.80
24586;BMP280;12743;52.262;6.172;2022-09-20T05:24:14;101821.28;;;8.81
24586;BMP280;12743;52.262;6.172;2022-09-20T05:29:30;101778.91;;;8.55
24586;BMP280;12743;52.262;6.172;2022-09-20T05:34:40;101819.03;;;8.69
24586;BMP280;12743;52.262;6.172;2022-09-20T05:43:11;101768.63;;;8.58
24586;BMP280;12743;52.262;6.172;2022-09-20T05:45:48;101838.25;;;9.02
24586;BMP280;12743;52.262;6.172;2022-09-20T05:51:32;101802.94;;;8.81
24586;BMP280;12743;52.262;6.172;2022-09-20T05:54:23;101723.44;;;8.34
24586;BMP280;12743;52.262;6.172;2022-09-20T05:57:17;101762.59;;;8.58
24586;BMP280;12743;52.262;6.172;2022-09-20T06:00:04;101832.16;;;9.06
24586;BMP280;12743;52.262;6.172;2022-09-20T06:02:56;101778.63;;;8.75
24586;BMP280;12743;52.262;6.172;2022-09-20T06:13:54;101845.69;;;9.32
24586;BMP280;12743;52.262;6.172;2022-09-20T06:16:45;101828.53;;;9.21
24586;BMP280;12743;52.262;6.172;2022-09-20T06:19:34;101840.50;;;9.27
24586;BMP280;12743;52.262;6.172;2022-09-20T06:22:10;101737.03;;;8.73
24586;BMP280;12743;52.262;6.172;2022-09-20T06:27:26;101826.84;;;9.30
24586;BMP280;12743;52.262;6.172;2022-09-20T06:29:58;101810.56;;;9.14
24586;BMP280;12743;52.262;6.172;2022-09-20T06:32:24;101805.53;;;9.18
24586;BMP280;12743;52.262;6.172;2022-09-20T06:34:52;101673.69;;;8.34
24586;BMP280;12743;52.262;6.172;2022-09-20T06:37:43;101871.50;;;9.76
24586;BMP280;12743;52.262;6.172;2022-09-20T06:43:15;101840.13;;;9.52
24586;BMP280;12743;52.262;6.172;2022-09-20T06:45:41;101879.66;;;9.88
24586;BMP280;12743;52.262;6.172;2022-09-20T06:48:07;101874.00;;;9.81
24586;BMP280;12743;52.262;6.172;2022-09-20T06:50:38;101853.78;;;9.81
24586;BMP280;12743;52.262;6.172;2022-09-20T06:53:04;101815.66;;;9.70
24586;BMP280;12743;52.262;6.172;2022-09-20T06:55:34;101811.41;;;9.74
24586;BMP280;12743;52.262;6.172;2022-09-20T06:58:02;101887.19;;;10.22
24586;BMP280;12743;52.262;6.172;2022-09-20T07:00:27;101800.69;;;9.71
24586;BMP280;12743;52.262;6.172;2022-09-20T07:02:53;101821.13;;;9.74
24586;BMP280;12743;52.262;6.172;2022-09-20T07:05:21;101851.31;;;10.03
24586;BMP280;12743;52.262;6.172;2022-09-20T07:07:47;101896.34;;;10.24
24586;BMP280;12743;52.262;6.172;2022-09-20T07:10:13;101859.09;;;10.08
24586;BMP280;12743;52.262;6.172;2022-09-20T07:12:39;101794.09;;;9.73
24586;BMP280;12743;52.262;6.172;2022-09-20T07:15:06;101850.91;;;10.10
24586;BMP280;12743;52.262;6.172;2022-09-20T07:17:32;101903.53;;;10.46
24586;BMP280;12743;52.262;6.172;2022-09-20T07:19:58;101906.34;;;10.63
24586;BMP280;12743;52.262;6.172;2022-09-20T07:22:25;101908.09;;;10.81
24586;BMP280;12743;52.262;6.172;2022-09-20T07:24:51;101867.47;;;10.51
24586;BMP280;12743;52.262;6.172;2022-09-20T07:27:17;101874.94;;;10.58
24586;BMP280;12743;52.262;6.172;2022-09-20T07:29:43;101771.09;;;9.97
24586;BMP280;12743;52.262;6.172;2022-09-20T07:32:08;101750.94;;;10.06
24586;BMP280;12743;52.262;6.172;2022-09-20T07:34:33;101799.63;;;10.40
24586;BMP280;12743;52.262;6.172;2022-09-20T07:37:02;101902.28;;;11.06
24586;BMP280;12743;52.262;6.172;2022-09-20T07:39:28;101849.44;;;10.58
24586;BMP280;12743;52.262;6.172;2022-09-20T07:41:53;101849.22;;;11.04
24586;BMP280;12743;52.262;6.172;2022-09-20T07:44:19;101826.91;;;11.15
24586;BMP280;12743;52.262;6.172;2022-09-20T07:46:58;101876.84;;;11.60
24586;BMP280;12743;52.262;6.172;2022-09-20T07:49:27;101878.47;;;11.78
24586;BMP280;12743;52.262;6.172;2022-09-20T07:51:56;101863.28;;;11.44
24586;BMP280;12743;52.262;6.172;2022-09-20T07:54:22;101849.09;;;11.31
24586;BMP280;12743;52.262;6.172;2022-09-20T07:56:47;101886.69;;;11.54
24586;BMP280;12743;52.262;6.172;2022-09-20T07:59:13;101885.53;;;11.38
24586;BMP280;12743;52.262;6.172;2022-09-20T08:01:40;101896.41;;;11.45
24586;BMP280;12743;52.262;6.172;2022-09-20T08:04:09;101866.13;;;11.34
24586;BMP280;12743;52.262;6.172;2022-09-20T08:06:36;101852.34;;;11.28
24586;BMP280;12743;52.262;6.172;2022-09-20T08:09:03;101913.94;;;11.80
24586;BMP280;12743;52.262;6.172;2022-09-20T08:11:29;101875.25;;;11.59
24586;BMP280;12743;52.262;6.172;2022-09-20T08:13:56;101871.88;;;11.58
24586;BMP280;12743;52.262;6.172;2022-09-20T08:16:22;101770.19;;;11.01
24586;BMP280;12743;52.262;6.172;2022-09-20T08:18:50;101855.84;;;11.68
24586;BMP280;12743;52.262;6.172;2022-09-20T08:21:16;101881.56;;;11.80
24586;BMP280;12743;52.262;6.172;2022-09-20T08:23:44;101878.03;;;11.84
24586;BMP280;12743;52.262;6.172;2022-09-20T08:26:15;101927.13;;;12.11
24586;BMP280;12743;52.262;6.172;2022-09-20T08:28:42;101904.00;;;12.08
24586;BMP280;12743;52.262;6.172;2022-09-20T08:31:14;101931.34;;;12.29
24586;BMP280;12743;52.262;6.172;2022-09-20T08:33:40;101904.31;;;12.15
24586;BMP280;12743;52.262;6.172;2022-09-20T08:36:10;101938.38;;;12.42
24586;BMP280;12743;52.262;6.172;2022-09-20T08:38:35;101922.53;;;12.34
24586;BMP280;12743;52.262;6.172;2022-09-20T08:41:13;101897.13;;;12.38
24586;BMP280;12743;52.262;6.172;2022-09-20T08:43:47;101912.50;;;12.61
24586;BMP280;12743;52.262;6.172;2022-09-20T08:46:17;101915.97;;;12.70
24586;BMP280;12743;52.262;6.172;2022-09-20T08:48:43;101901.97;;;12.44
24586;BMP280;12743;52.262;6.172;2022-09-20T08:51:12;101899.03;;;12.63
24586;BMP280;12743;52.262;6.172;2022-09-20T08:53:46;101906.00;;;12.59
24586;BMP280;12743;52.262;6.172;2022-09-20T08:56:12;101920.47;;;12.87
24586;BMP280;12743;52.262;6.172;2022-09-20T08:58:38;101880.59;;;12.88
24586;BMP280;12743;52.262;6.172;2022-09-20T09:01:04;101896.88;;;13.08
24586;BMP280;12743;52.262;6.172;2022-09-20T09:03:31;101922.00;;;13.14
24586;BMP280;12743;52.262;6.172;2022-09-20T09:05:57;101933.63;;;13.21
24586;BMP280;12743;52.262;6.172;2022-09-20T09:08:28;101916.09;;;13.42
24586;BMP280;12743;52.262;6.172;2022-09-20T09:11:02;101896.22;;;13.28
24586;BMP280;12743;52.262;6.172;2022-09-20T09:13:52;101923.19;;;13.59
24586;BMP280;12743;52.262;6.172;2022-09-20T09:16:19;101873.69;;;13.47
24586;BMP280;12743;52.262;6.172;2022-09-20T09:18:46;101946.44;;;13.74
24586;BMP280;12743;52.262;6.172;2022-09-20T09:21:27;101941.97;;;14.12
24586;BMP280;12743;52.262;6.172;2022-09-20T09:24:25;101911.91;;;13.88
24586;BMP280;12743;52.262;6.172;2022-09-20T09:27:04;101921.47;;;14.01
24586;BMP280;12743;52.262;6.172;2022-09-20T09:29:30;101877.13;;;13.86
24586;BMP280;12743;52.262;6.172;2022-09-20T09:32:18;101907.69;;;13.95
24586;BMP280;12743;52.262;6.172;2022-09-20T09:34:44;101828.94;;;13.59
24586;BMP280;12743;52.262;6.172;2022-09-20T09:37:30;101919.69;;;14.13
24586;BMP280;12743;52.262;6.172;2022-09-20T09:40:13;101904.09;;;14.00
24586;BMP280;12743;52.262;6.172;2022-09-20T09:45:30;101931.78;;;14.23
24586;BMP280;12743;52.262;6.172;2022-09-20T09:47:58;101875.38;;;13.90
24586;BMP280;12743;52.262;6.172;2022-09-20T09:50:32;101931.06;;;14.14
24586;BMP280;12743;52.262;6.172;2022-09-20T09:53:00;101868.72;;;13.84
24586;BMP280;12743;52.262;6.172;2022-09-20T09:55:37;101928.53;;;14.26
24586;BMP280;12743;52.262;6.172;2022-09-20T10:01:40;101905.88;;;14.16
24586;BMP280;12743;52.262;6.172;2022-09-20T10:12:22;101955.31;;;15.40
24586;BMP280;12743;52.262;6.172;2022-09-20T10:17:35;101908.31;;;14.92
24586;BMP280;12743;52.262;6.172;2022-09-20T10:20:22;101914.25;;;15.21
24586;BMP280;12743;52.262;6.172;2022-09-20T10:23:10;101918.69;;;15.42
24586;BMP280;12743;52.262;6.172;2022-09-20T10:25:51;101920.84;;;15.60
24586;BMP280;12743;52.262;6.172;2022-09-20T10:28:50;101906.19;;;15.30
24586;BMP280;12743;52.262;6.172;2022-09-20T10:31:30;101943.28;;;15.87
24586;BMP280;12743;52.262;6.172;2022-09-20T10:34:09;101934.09;;;15.96
24586;BMP280;12743;52.262;6.172;2022-09-20T10:36:51;101945.91;;;15.99
24586;BMP280;12743;52.262;6.172;2022-09-20T10:39:24;101862.22;;;15.38
24586;BMP280;12743;52.262;6.172;2022-09-20T10:48:07;101900.56;;;14.87
24586;BMP280;12743;52.262;6.172;2022-09-20T10:50:44;101912.16;;;14.74
24586;BMP280;12743;52.262;6.172;2022-09-20T10:56:23;101950.50;;;14.68
24586;BMP280;12743;52.262;6.172;2022-09-20T11:09:48;101877.28;;;14.10
24586;BMP280;12743;52.262;6.172;2022-09-20T11:14:51;101916.34;;;14.33
24586;BMP280;12743;52.262;6.172;2022-09-20T11:17:31;101929.28;;;14.56
24586;BMP280;12743;52.262;6.172;2022-09-20T11:20:04;101889.66;;;14.47
24586;BMP280;12743;52.262;6.172;2022-09-20T11:22:47;101914.94;;;14.57
24586;BMP280;12743;52.262;6.172;2022-09-20T11:25:17;101913.69;;;14.95
24586;BMP280;12743;52.262;6.172;2022-09-20T11:28:12;101955.16;;;15.24
24586;BMP280;12743;52.262;6.172;2022-09-20T11:30:57;101892.97;;;14.65
24586;BMP280;12743;52.262;6.172;2022-09-20T11:33:32;101864.59;;;14.53
24586;BMP280;12743;52.262;6.172;2022-09-20T11:36:03;101932.31;;;14.87
24586;BMP280;12743;52.262;6.172;2022-09-20T11:38:38;101955.16;;;14.91
24586;BMP280;12743;52.262;6.172;2022-09-20T11:43:44;101936.94;;;14.69
24586;BMP280;12743;52.262;6.172;2022-09-20T11:46:21;101950.56;;;14.80
24586;BMP280;12743;52.262;6.172;2022-09-20T11:49:05;101885.13;;;14.27
24586;BMP280;12743;52.262;6.172;2022-09-20T11:57:28;101965.97;;;14.57
24586;BMP280;12743;52.262;6.172;2022-09-20T11:59:56;101964.63;;;14.42
24586;BMP280;12743;52.262;6.172;2022-09-20T12:02:34;101993.13;;;14.37
24586;BMP280;12743;52.262;6.172;2022-09-20T12:05:03;101982.13;;;14.26
24586;BMP280;12743;52.262;6.172;2022-09-20T12:07:40;101986.22;;;14.53
24586;BMP280;12743;52.262;6.172;2022-09-20T12:10:21;101888.09;;;13.96
24586;BMP280;12743;52.262;6.172;2022-09-20T12:12:48;101982.53;;;14.37
24586;BMP280;12743;52.262;6.172;2022-09-20T12:26:03;101933.56;;;14.10
24586;BMP280;12743;52.262;6.172;2022-09-20T12:28:34;101959.88;;;14.36
24586;BMP280;12743;52.262;6.172;2022-09-20T12:36:41;101965.41;;;14.93
24586;BMP280;12743;52.262;6.172;2022-09-20T12:41:55;101968.31;;;15.12
24586;BMP280;12743;52.262;6.172;2022-09-20T13:00:38;101933.59;;;14.81
24586;BMP280;12743;52.262;6.172;2022-09-20T13:21:56;101957.13;;;14.74
24586;BMP280;12743;52.262;6.172;2022-09-20T13:24:24;101939.78;;;14.85
24586;BMP280;12743;52.262;6.172;2022-09-20T13:26:52;101961.56;;;15.02
24586;BMP280;12743;52.262;6.172;2022-09-20T13:29:50;101963.41;;;15.10
24586;BMP280;12743;52.262;6.172;2022-09-20T13:32:25;101955.09;;;15.12
24586;BMP280;12743;52.262;6.172;2022-09-20T13:35:13;101939.97;;;15.33
24586;BMP280;12743;52.262;6.172;2022-09-20T13:42:50;101954.94;;;16.46
24586;BMP280;12743;52.262;6.172;2022-09-20T13:45:17;101849.16;;;16.05
24586;BMP280;12743;52.262;6.172;2022-09-20T13:47:47;101908.47;;;16.00
24586;BMP280;12743;52.262;6.172;2022-09-20T13:52:54;101938.94;;;15.70
24586;BMP280;12743;52.262;6.172;2022-09-20T13:57:54;101943.19;;;15.39
24586;BMP280;12743;52.262;6.172;2022-09-20T14:00:21;101915.34;;;15.20
24586;BMP280;12743;52.262;6.172;2022-09-20T14:02:47;101880.53;;;14.98
24586;BMP280;12743;52.262;6.172;2022-09-20T14:05:18;101953.94;;;15.54
24586;BMP280;12743;52.262;6.172;2022-09-20T14:07:45;101951.06;;;15.59
24586;BMP280;12743;52.262;6.172;2022-09-20T14:10:34;101952.19;;;15.70
24586;BMP280;12743;52.262;6.172;2022-09-20T14:13:04;101914.41;;;15.37
24586;BMP280;12743;52.262;6.172;2022-09-20T14:15:42;101845.38;;;15.09
24586;BMP280;12743;52.262;6.172;2022-09-20T14:18:18;101938.72;;;16.24
24586;BMP280;12743;52.262;6.172;2022-09-20T14:20:46;101949.44;;;16.03
24586;BMP280;12743;52.262;6.172;2022-09-20T14:23:30;101941.16;;;15.80
24586;BMP280;12743;52.262;6.172;2022-09-20T14:28:44;101907.66;;;17.07
24586;BMP280;12743;52.262;6.172;2022-09-20T14:33:47;101953.06;;;18.11
24586;BMP280;12743;52.262;6.172;2022-09-20T14:36:18;101929.63;;;18.74
24586;BMP280;12743;52.262;6.172;2022-09-20T14:38:46;101928.09;;;18.35
24586;BMP280;12743;52.262;6.172;2022-09-20T14:41:12;101942.88;;;17.98
24586;BMP280;12743;52.262;6.172;2022-09-20T14:43:38;101931.03;;;18.30
24586;BMP280;12743;52.262;6.172;2022-09-20T14:46:15;101935.09;;;18.43
24586;BMP280;12743;52.262;6.172;2022-09-20T14:48:41;101932.50;;;18.08
24586;BMP280;12743;52.262;6.172;2022-09-20T14:53:41;101934.56;;;16.90
24586;BMP280;12743;52.262;6.172;2022-09-20T14:56:09;101882.78;;;16.29
24586;BMP280;12743;52.262;6.172;2022-09-20T15:01:37;101880.94;;;16.29
24586;BMP280;12743;52.262;6.172;2022-09-20T15:04:07;101915.81;;;16.43
24586;BMP280;12743;52.262;6.172;2022-09-20T15:06:37;101883.72;;;16.08
24586;BMP280;12743;52.262;6.172;2022-09-20T15:09:04;101912.75;;;16.05
24586;BMP280;12743;52.262;6.172;2022-09-20T15:11:30;101820.97;;;15.61
24586;BMP280;12743;52.262;6.172;2022-09-20T15:13:55;101934.09;;;16.08
24586;BMP280;12743;52.262;6.172;2022-09-20T15:16:20;101888.38;;;15.75
24586;BMP280;12743;52.262;6.172;2022-09-20T15:18:46;101913.44;;;15.78
24586;BMP280;12743;52.262;6.172;2022-09-20T15:21:11;101917.63;;;15.79
24586;BMP280;12743;52.262;6.172;2022-09-20T15:23:38;101945.25;;;16.02
24586;BMP280;12743;52.262;6.172;2022-09-20T15:26:04;101908.34;;;15.73
24586;BMP280;12743;52.262;6.172;2022-09-20T15:28:32;101826.00;;;15.17
24586;BMP280;12743;52.262;6.172;2022-09-20T15:30:58;101813.91;;;14.96
24586;BMP280;12743;52.262;6.172;2022-09-20T15:33:23;101912.91;;;15.60
24586;BMP280;12743;52.262;6.172;2022-09-20T15:35:49;101882.28;;;15.39
24586;BMP280;12743;52.262;6.172;2022-09-20T15:38:18;101934.66;;;15.78
24586;BMP280;12743;52.262;6.172;2022-09-20T15:40:45;101881.72;;;15.45
24586;BMP280;12743;52.262;6.172;2022-09-20T15:43:14;101906.13;;;15.51
24586;BMP280;12743;52.262;6.172;2022-09-20T15:45:51;101944.31;;;15.62
24586;BMP280;12743;52.262;6.172;2022-09-20T15:48:18;101901.59;;;15.39
24586;BMP280;12743;52.262;6.172;2022-09-20T15:51:04;101924.38;;;15.64
24586;BMP280;12743;52.262;6.172;2022-09-20T15:53:36;101868.25;;;15.26
24586;BMP280;12743;52.262;6.172;2022-09-20T15:56:22;101952.06;;;15.79
24586;BMP280;12743;52.262;6.172;2022-09-20T15:58:53;101923.50;;;15.60
24586;BMP280;12743;52.262;6.172;2022-09-20T16:01:26;101923.97;;;15.42
24586;BMP280;12743;52.262;6.172;2022-09-20T16:03:53;101905.00;;;15.40
24586;BMP280;12743;52.262;6.172;2022-09-20T16:06:18;101954.75;;;15.67
24586;BMP280;12743;52.262;6.172;2022-09-20T16:08:44;101936.72;;;15.48
24586;BMP280;12743;52.262;6.172;2022-09-20T16:11:15;101933.72;;;15.38
24586;BMP280;12743;52.262;6.172;2022-09-20T16:13:40;101914.56;;;15.20
24586;BMP280;12743;52.262;6.172;2022-09-20T16:16:08;101893.66;;;15.06
24586;BMP280;12743;52.262;6.172;2022-09-20T16:18:35;101837.06;;;14.66
24586;BMP280;12743;52.262;6.172;2022-09-20T16:21:19;101955.88;;;15.33
24586;BMP280;12743;52.262;6.172;2022-09-20T16:23:50;101929.78;;;15.11
24586;BMP280;12743;52.262;6.172;2022-09-20T16:26:16;101926.97;;;15.07
24586;BMP280;12743;52.262;6.172;2022-09-20T16:28:43;101974.34;;;15.21
24586;BMP280;12743;52.262;6.172;2022-09-20T16:31:45;101962.63;;;15.10
24586;BMP280;12743;52.262;6.172;2022-09-20T16:34:23;101929.59;;;14.75
24586;BMP280;12743;52.262;6.172;2022-09-20T16:36:53;101952.69;;;14.86
24586;BMP280;12743;52.262;6.172;2022-09-20T16:39:21;101909.25;;;14.46
24586;BMP280;12743;52.262;6.172;2022-09-20T16:42:02;101939.47;;;14.66
24586;BMP280;12743;52.262;6.172;2022-09-20T16:44:33;101994.94;;;14.95
24586;BMP280;12743;52.262;6.172;2022-09-20T16:46:58;101964.63;;;14.72
24586;BMP280;12743;52.262;6.172;2022-09-20T16:49:24;101944.34;;;14.55
24586;BMP280;12743;52.262;6.172;2022-09-20T16:51:51;101968.50;;;14.74
24586;BMP280;12743;52.262;6.172;2022-09-20T16:54:16;101953.06;;;14.56
24586;BMP280;12743;52.262;6.172;2022-09-20T16:56:44;101985.31;;;14.70
24586;BMP280;12743;52.262;6.172;2022-09-20T16:59:11;101907.75;;;14.16
24586;BMP280;12743;52.262;6.172;2022-09-20T17:01:39;101968.72;;;14.61
24586;BMP280;12743;52.262;6.172;2022-09-20T17:04:05;102003.34;;;14.76
24586;BMP280;12743;52.262;6.172;2022-09-20T17:06:32;102007.38;;;14.74
24586;BMP280;12743;52.262;6.172;2022-09-20T17:08:59;101968.25;;;14.38
24586;BMP280;12743;52.262;6.172;2022-09-20T17:11:30;101973.50;;;14.46
24586;BMP280;12743;52.262;6.172;2022-09-20T17:13:55;101952.31;;;14.26
24586;BMP280;12743;52.262;6.172;2022-09-20T17:16:29;101900.13;;;13.85
24586;BMP280;12743;52.262;6.172;2022-09-20T17:19:06;101995.19;;;14.31
24586;BMP280;12743;52.262;6.172;2022-09-20T17:21:33;102006.53;;;14.32
24586;BMP280;12743;52.262;6.172;2022-09-20T17:24:00;102017.56;;;14.34
24586;BMP280;12743;52.262;6.172;2022-09-20T17:26:32;102021.00;;;14.34
24586;BMP280;12743;52.262;6.172;2022-09-20T17:29:00;101986.41;;;14.10
24586;BMP280;12743;52.262;6.172;2022-09-20T17:31:31;102018.75;;;14.16
24586;BMP280;12743;52.262;6.172;2022-09-20T17:33:58;102013.94;;;14.09
24586;BMP280;12743;52.262;6.172;2022-09-20T17:36:29;101938.88;;;13.55
24586;BMP280;12743;52.262;6.172;2022-09-20T17:38:56;102004.38;;;13.79
24586;BMP280;12743;52.262;6.172;2022-09-20T17:41:22;102030.47;;;13.89
24586;BMP280;12743;52.262;6.172;2022-09-20T17:43:54;101975.06;;;13.55
24586;BMP280;12743;52.262;6.172;2022-09-20T17:46:25;101967.78;;;13.35
24586;BMP280;12743;52.262;6.172;2022-09-20T17:48:54;101943.41;;;13.21
24586;BMP280;12743;52.262;6.172;2022-09-20T17:51:25;102001.00;;;13.53
24586;BMP280;12743;52.262;6.172;2022-09-20T17:53:51;102046.31;;;13.81
24586;BMP280;12743;52.262;6.172;2022-09-20T17:56:17;102047.75;;;13.69
24586;BMP280;12743;52.262;6.172;2022-09-20T17:58:43;101976.19;;;13.20
24586;BMP280;12743;52.262;6.172;2022-09-20T18:01:14;102012.03;;;13.38
24586;BMP280;12743;52.262;6.172;2022-09-20T18:03:42;101995.28;;;13.17
24586;BMP280;12743;52.262;6.172;2022-09-20T18:06:24;102065.13;;;13.53
24586;BMP280;12743;52.262;6.172;2022-09-20T18:08:55;102026.16;;;13.25
24586;BMP280;12743;52.262;6.172;2022-09-20T18:11:25;102039.66;;;13.40
24586;BMP280;12743;52.262;6.172;2022-09-20T18:13:51;102064.22;;;13.49
24586;BMP280;12743;52.262;6.172;2022-09-20T18:16:17;102070.72;;;13.52
24586;BMP280;12743;52.262;6.172;2022-09-20T18:18:43;101990.59;;;12.97
24586;BMP280;12743;52.262;6.172;2022-09-20T18:21:15;101996.66;;;12.97
24586;BMP280;12743;52.262;6.172;2022-09-20T18:23:41;102067.78;;;13.36
24586;BMP280;12743;52.262;6.172;2022-09-20T18:26:12;102049.28;;;13.19
24586;BMP280;12743;52.262;6.172;2022-09-20T18:31:25;101995.34;;;12.69
24586;BMP280;12743;52.262;6.172;2022-09-20T18:33:55;102079.53;;;13.22
24586;BMP280;12743;52.262;6.172;2022-09-20T18:36:21;102040.84;;;12.91
24586;BMP280;12743;52.262;6.172;2022-09-20T18:38:50;102064.16;;;13.07
24586;BMP280;12743;52.262;6.172;2022-09-20T18:41:20;101986.59;;;12.51
24586;BMP280;12743;52.262;6.172;2022-09-20T18:43:47;101937.16;;;12.09
24586;BMP280;12743;52.262;6.172;2022-09-20T18:46:12;102047.94;;;12.74
24586;BMP280;12743;52.262;6.172;2022-09-20T18:48:38;102067.66;;;12.76
24586;BMP280;12743;52.262;6.172;2022-09-20T18:51:05;102085.31;;;12.76
24586;BMP280;12743;52.262;6.172;2022-09-20T18:53:32;102004.94;;;12.26
24586;BMP280;12743;52.262;6.172;2022-09-20T18:56:22;102099.63;;;12.83
24586;BMP280;12743;52.262;6.172;2022-09-20T18:58:49;102082.22;;;12.74
24586;BMP280;12743;52.262;6.172;2022-09-20T19:07:02;102063.34;;;12.50
24586;BMP280;12743;52.262;6.172;2022-09-20T19:18:13;102102.91;;;12.58
24586;BMP280;12743;52.262;6.172;2022-09-20T19:20:45;102061.03;;;12.26
24586;BMP280;12743;52.262;6.172;2022-09-20T19:28:34;102103.25;;;12.12
24586;BMP280;12743;52.262;6.172;2022-09-20T19:31:00;102033.78;;;11.78
24586;BMP280;12743;52.262;6.172;2022-09-20T19:33:26;102133.75;;;12.27